This is the latest recevied weather packets stored in our database for station/object RU2DX-10. If no packets are shown the sender has not sent any weather packets the latest 1 day(s).
| Time | Temp. | Humidity | Pressure | Rain* | Wind** | Luminosity | Snow |
|---|---|---|---|---|---|---|---|
| 1777889046 | 25° C | 38% | 1009.9 hPa | - | - | - | - |
| 1777888145 | 23.33° C | 42% | 1010.2 hPa | - | - | - | - |
| 1777887245 | 23.89° C | 40% | 1010.3 hPa | - | - | - | - |
| 1777886344 | 24.44° C | 38% | 1010.2 hPa | - | - | - | - |
| 1777885442 | 23.89° C | 40% | 1010.3 hPa | - | - | - | - |
| 1777884541 | 24.44° C | 40% | 1010.4 hPa | - | - | - | - |
| 1777883640 | 23.89° C | 41% | 1010.5 hPa | - | - | - | - |
| 1777882740 | 22.78° C | 42% | 1010.5 hPa | - | - | - | - |
| 1777881840 | 23.33° C | 43% | 1010.6 hPa | - | - | - | - |
| 1777880939 | 23.33° C | 41% | 1010.4 hPa | - | - | - | - |
| 1777880038 | 22.78° C | 43% | 1010.5 hPa | - | - | - | - |
| 1777879137 | 21.67° C | 47% | 1010.5 hPa | - | - | - | - |
| 1777878237 | 21.67° C | 44% | 1010.5 hPa | - | - | - | - |
| 1777877336 | 22.22° C | 47% | 1010.4 hPa | - | - | - | - |
| 1777876435 | 20° C | 50% | 1010.3 hPa | - | - | - | - |
| 1777875534 | 20° C | 50% | 1010.4 hPa | - | - | - | - |
| 1777874633 | 20.56° C | 50% | 1010.2 hPa | - | - | - | - |
| 1777873732 | 19.44° C | 52% | 1010.2 hPa | - | - | - | - |
| 1777872831 | 18.89° C | 54% | 1010.3 hPa | - | - | - | - |
| 1777871930 | 18.33° C | 56% | 1010.3 hPa | - | - | - | - |
| 1777871029 | 17.22° C | 60% | 1010.2 hPa | - | - | - | - |
| 1777870128 | 16.11° C | 66% | 1010.3 hPa | - | - | - | - |
| 1777869228 | 16.11° C | 66% | 1010.2 hPa | - | - | - | - |
| 1777868327 | 15.56° C | 75% | 1010.2 hPa | - | - | - | - |
| 1777867427 | 15° C | 78% | 1010 hPa | - | - | - | - |
* Rain since midnight (hover to see other rain measurements)
** Current wind speed in m/s (hover to see current wind gust speed)